sensor_id;sensor_type;location;lat;lon;timestamp;pressure;altitude;pressure_sealevel;temperature;humidity
60817;BME280;51921;51.518;-3.188;2023-12-04T00:02:15;99397.00;;;1.89;100.00
60817;BME280;51921;51.518;-3.188;2023-12-04T00:04:41;99398.33;;;1.71;100.00
60817;BME280;51921;51.518;-3.188;2023-12-04T00:07:06;99392.33;;;1.78;100.00
60817;BME280;51921;51.518;-3.188;2023-12-04T00:09:32;99390.33;;;1.90;100.00
60817;BME280;51921;51.518;-3.188;2023-12-04T00:11:57;99376.57;;;2.09;100.00
60817;BME280;51921;51.518;-3.188;2023-12-04T00:14:22;99369.84;;;2.25;100.00
60817;BME280;51921;51.518;-3.188;2023-12-04T00:16:48;99366.35;;;2.32;100.00
60817;BME280;51921;51.518;-3.188;2023-12-04T00:19:13;99351.22;;;2.07;100.00
60817;BME280;51921;51.518;-3.188;2023-12-04T00:21:39;99342.43;;;2.00;100.00
60817;BME280;51921;51.518;-3.188;2023-12-04T00:24:05;99334.53;;;2.37;100.00
60817;BME280;51921;51.518;-3.188;2023-12-04T00:26:30;99324.75;;;2.20;100.00
60817;BME280;51921;51.518;-3.188;2023-12-04T00:28:56;99315.38;;;2.14;100.00
60817;BME280;51921;51.518;-3.188;2023-12-04T00:31:21;99308.93;;;2.42;100.00
60817;BME280;51921;51.518;-3.188;2023-12-04T00:33:47;99305.29;;;2.02;100.00
60817;BME280;51921;51.518;-3.188;2023-12-04T00:36:12;99303.00;;;2.96;100.00
60817;BME280;51921;51.518;-3.188;2023-12-04T00:38:38;99292.37;;;2.32;100.00
60817;BME280;51921;51.518;-3.188;2023-12-04T00:41:04;99292.42;;;2.08;100.00
60817;BME280;51921;51.518;-3.188;2023-12-04T00:43:29;99283.02;;;2.05;100.00
60817;BME280;51921;51.518;-3.188;2023-12-04T00:45:54;99275.19;;;1.95;100.00
60817;BME280;51921;51.518;-3.188;2023-12-04T00:48:20;99258.00;;;2.04;100.00
60817;BME280;51921;51.518;-3.188;2023-12-04T00:50:46;99255.04;;;2.18;100.00
60817;BME280;51921;51.518;-3.188;2023-12-04T00:53:11;99247.69;;;1.98;100.00
60817;BME280;51921;51.518;-3.188;2023-12-04T00:55:37;99234.99;;;1.87;100.00
60817;BME280;51921;51.518;-3.188;2023-12-04T00:58:02;99228.30;;;2.24;100.00
60817;BME280;51921;51.518;-3.188;2023-12-04T01:00:28;99221.25;;;2.11;100.00
60817;BME280;51921;51.518;-3.188;2023-12-04T01:02:53;99209.08;;;1.97;100.00
60817;BME280;51921;51.518;-3.188;2023-12-04T01:05:19;99197.80;;;1.86;100.00
60817;BME280;51921;51.518;-3.188;2023-12-04T01:07:44;99193.49;;;1.75;100.00
60817;BME280;51921;51.518;-3.188;2023-12-04T01:10:10;99188.60;;;1.72;100.00
60817;BME280;51921;51.518;-3.188;2023-12-04T01:12:36;99184.55;;;1.91;100.00
60817;BME280;51921;51.518;-3.188;2023-12-04T01:15:01;99178.90;;;2.04;100.00
60817;BME280;51921;51.518;-3.188;2023-12-04T01:17:27;99171.04;;;1.89;100.00
60817;BME280;51921;51.518;-3.188;2023-12-04T01:19:52;99160.66;;;1.80;100.00
60817;BME280;51921;51.518;-3.188;2023-12-04T01:22:18;99153.18;;;1.82;100.00
60817;BME280;51921;51.518;-3.188;2023-12-04T01:24:43;99142.63;;;1.58;100.00
60817;BME280;51921;51.518;-3.188;2023-12-04T01:27:09;99135.29;;;1.95;100.00
60817;BME280;51921;51.518;-3.188;2023-12-04T01:29:35;99128.98;;;1.71;100.00
60817;BME280;51921;51.518;-3.188;2023-12-04T01:32:00;99125.92;;;1.60;100.00
60817;BME280;51921;51.518;-3.188;2023-12-04T01:34:26;99113.38;;;1.50;100.00
60817;BME280;51921;51.518;-3.188;2023-12-04T01:36:51;99108.38;;;1.79;100.00
60817;BME280;51921;51.518;-3.188;2023-12-04T01:39:17;99102.01;;;1.51;100.00
60817;BME280;51921;51.518;-3.188;2023-12-04T01:41:42;99094.88;;;1.90;100.00
60817;BME280;51921;51.518;-3.188;2023-12-04T01:44:08;99085.98;;;1.95;100.00
60817;BME280;51921;51.518;-3.188;2023-12-04T01:46:34;99080.67;;;1.82;100.00
60817;BME280;51921;51.518;-3.188;2023-12-04T01:48:59;99075.22;;;1.30;100.00
60817;BME280;51921;51.518;-3.188;2023-12-04T01:51:26;99070.83;;;2.22;100.00
60817;BME280;51921;51.518;-3.188;2023-12-04T01:53:50;99057.48;;;1.65;100.00
60817;BME280;51921;51.518;-3.188;2023-12-04T01:56:17;99054.93;;;1.70;100.00
60817;BME280;51921;51.518;-3.188;2023-12-04T01:58:42;99045.13;;;1.62;100.00
60817;BME280;51921;51.518;-3.188;2023-12-04T02:01:07;99040.57;;;1.56;100.00
60817;BME280;51921;51.518;-3.188;2023-12-04T02:03:33;99031.33;;;1.39;100.00
60817;BME280;51921;51.518;-3.188;2023-12-04T02:05:59;99021.46;;;1.51;100.00
60817;BME280;51921;51.518;-3.188;2023-12-04T02:08:24;99023.28;;;1.49;100.00
60817;BME280;51921;51.518;-3.188;2023-12-04T02:10:49;99012.73;;;1.38;100.00
60817;BME280;51921;51.518;-3.188;2023-12-04T02:13:15;99010.09;;;1.82;100.00
60817;BME280;51921;51.518;-3.188;2023-12-04T02:15:40;99000.63;;;1.46;100.00
60817;BME280;51921;51.518;-3.188;2023-12-04T02:18:06;99001.32;;;1.33;100.00
60817;BME280;51921;51.518;-3.188;2023-12-04T02:20:32;98999.87;;;1.28;100.00
60817;BME280;51921;51.518;-3.188;2023-12-04T02:22:57;98992.86;;;1.43;100.00
60817;BME280;51921;51.518;-3.188;2023-12-04T02:25:23;98988.68;;;1.07;100.00
60817;BME280;51921;51.518;-3.188;2023-12-04T02:27:50;98984.99;;;1.47;100.00
60817;BME280;51921;51.518;-3.188;2023-12-04T02:30:17;98984.75;;;1.47;100.00
60817;BME280;51921;51.518;-3.188;2023-12-04T02:32:44;98985.11;;;1.33;100.00
60817;BME280;51921;51.518;-3.188;2023-12-04T02:35:06;98983.30;;;1.51;100.00
60817;BME280;51921;51.518;-3.188;2023-12-04T02:37:31;98979.34;;;1.29;100.00
60817;BME280;51921;51.518;-3.188;2023-12-04T02:39:56;98973.03;;;1.75;100.00
60817;BME280;51921;51.518;-3.188;2023-12-04T02:42:22;98967.40;;;1.50;100.00
60817;BME280;51921;51.518;-3.188;2023-12-04T02:44:47;98969.28;;;1.58;100.00
60817;BME280;51921;51.518;-3.188;2023-12-04T02:47:13;98963.60;;;1.50;100.00
60817;BME280;51921;51.518;-3.188;2023-12-04T02:49:38;98963.76;;;1.57;100.00
60817;BME280;51921;51.518;-3.188;2023-12-04T02:52:04;98962.20;;;1.71;100.00
60817;BME280;51921;51.518;-3.188;2023-12-04T02:54:29;98961.40;;;1.91;100.00
60817;BME280;51921;51.518;-3.188;2023-12-04T02:56:55;98974.77;;;2.89;100.00
60817;BME280;51921;51.518;-3.188;2023-12-04T02:59:20;98970.60;;;3.07;100.00
60817;BME280;51921;51.518;-3.188;2023-12-04T03:01:46;98963.22;;;5.30;100.00
60817;BME280;51921;51.518;-3.188;2023-12-04T03:04:12;98960.62;;;6.10;100.00
60817;BME280;51921;51.518;-3.188;2023-12-04T03:06:37;98957.94;;;5.79;100.00
60817;BME280;51921;51.518;-3.188;2023-12-04T03:09:03;98962.88;;;6.64;100.00
60817;BME280;51921;51.518;-3.188;2023-12-04T03:11:28;98961.78;;;7.65;100.00
60817;BME280;51921;51.518;-3.188;2023-12-04T03:13:53;98958.92;;;7.94;100.00
60817;BME280;51921;51.518;-3.188;2023-12-04T03:16:19;98966.18;;;8.04;100.00
60817;BME280;51921;51.518;-3.188;2023-12-04T03:18:45;98968.90;;;8.51;100.00
60817;BME280;51921;51.518;-3.188;2023-12-04T03:21:10;98969.82;;;9.00;100.00
60817;BME280;51921;51.518;-3.188;2023-12-04T03:23:35;98972.99;;;8.63;100.00
60817;BME280;51921;51.518;-3.188;2023-12-04T03:26:01;98976.29;;;8.34;100.00
60817;BME280;51921;51.518;-3.188;2023-12-04T03:28:26;98974.38;;;9.42;100.00
60817;BME280;51921;51.518;-3.188;2023-12-04T03:30:52;98973.60;;;8.84;100.00
60817;BME280;51921;51.518;-3.188;2023-12-04T03:33:17;98976.98;;;8.03;100.00
60817;BME280;51921;51.518;-3.188;2023-12-04T03:35:43;98976.13;;;8.53;100.00
60817;BME280;51921;51.518;-3.188;2023-12-04T03:38:08;98975.64;;;8.42;100.00
60817;BME280;51921;51.518;-3.188;2023-12-04T03:40:34;98978.00;;;7.82;100.00
60817;BME280;51921;51.518;-3.188;2023-12-04T03:42:59;98980.43;;;7.37;100.00
60817;BME280;51921;51.518;-3.188;2023-12-04T03:45:25;98982.84;;;6.33;100.00
60817;BME280;51921;51.518;-3.188;2023-12-04T03:47:50;98977.77;;;7.74;100.00
60817;BME280;51921;51.518;-3.188;2023-12-04T03:50:15;98975.33;;;8.97;100.00
60817;BME280;51921;51.518;-3.188;2023-12-04T03:52:41;98970.86;;;8.58;100.00
60817;BME280;51921;51.518;-3.188;2023-12-04T03:55:07;98971.75;;;8.86;100.00
60817;BME280;51921;51.518;-3.188;2023-12-04T03:57:32;98967.24;;;8.46;100.00
60817;BME280;51921;51.518;-3.188;2023-12-04T03:59:57;98964.59;;;9.12;100.00
60817;BME280;51921;51.518;-3.188;2023-12-04T04:02:23;98962.94;;;9.77;100.00
60817;BME280;51921;51.518;-3.188;2023-12-04T04:04:48;98961.95;;;9.79;100.00
60817;BME280;51921;51.518;-3.188;2023-12-04T04:07:16;98965.28;;;7.99;100.00
60817;BME280;51921;51.518;-3.188;2023-12-04T04:09:39;98963.32;;;8.05;100.00
60817;BME280;51921;51.518;-3.188;2023-12-04T04:12:05;98967.79;;;7.71;100.00
60817;BME280;51921;51.518;-3.188;2023-12-04T04:14:30;98968.39;;;7.10;100.00
60817;BME280;51921;51.518;-3.188;2023-12-04T04:16:56;98970.11;;;7.90;100.00
60817;BME280;51921;51.518;-3.188;2023-12-04T04:19:21;98974.42;;;6.24;100.00
60817;BME280;51921;51.518;-3.188;2023-12-04T04:21:47;98969.26;;;7.09;100.00
60817;BME280;51921;51.518;-3.188;2023-12-04T04:24:12;98973.35;;;7.55;100.00
60817;BME280;51921;51.518;-3.188;2023-12-04T04:26:38;98971.04;;;7.35;100.00
60817;BME280;51921;51.518;-3.188;2023-12-04T04:29:03;98970.94;;;5.43;100.00
60817;BME280;51921;51.518;-3.188;2023-12-04T04:31:29;98971.73;;;4.32;100.00
60817;BME280;51921;51.518;-3.188;2023-12-04T04:33:54;98972.73;;;5.69;100.00
60817;BME280;51921;51.518;-3.188;2023-12-04T04:36:20;98971.75;;;5.48;100.00
60817;BME280;51921;51.518;-3.188;2023-12-04T04:38:45;98976.41;;;4.66;100.00
60817;BME280;51921;51.518;-3.188;2023-12-04T04:41:13;98974.79;;;4.70;100.00
60817;BME280;51921;51.518;-3.188;2023-12-04T04:43:36;98973.42;;;4.10;100.00
60817;BME280;51921;51.518;-3.188;2023-12-04T04:46:02;98975.23;;;5.53;100.00
60817;BME280;51921;51.518;-3.188;2023-12-04T04:48:27;98976.04;;;7.05;100.00
60817;BME280;51921;51.518;-3.188;2023-12-04T04:50:53;98970.99;;;4.75;100.00
60817;BME280;51921;51.518;-3.188;2023-12-04T04:53:18;98966.77;;;4.86;100.00
60817;BME280;51921;51.518;-3.188;2023-12-04T04:55:44;98965.28;;;3.12;100.00
60817;BME280;51921;51.518;-3.188;2023-12-04T04:58:09;98962.47;;;2.86;100.00
60817;BME280;51921;51.518;-3.188;2023-12-04T05:00:35;98964.51;;;2.73;100.00
60817;BME280;51921;51.518;-3.188;2023-12-04T05:03:00;98970.69;;;4.55;100.00
60817;BME280;51921;51.518;-3.188;2023-12-04T05:05:26;98973.31;;;6.21;100.00
60817;BME280;51921;51.518;-3.188;2023-12-04T05:07:51;98969.13;;;2.66;100.00
60817;BME280;51921;51.518;-3.188;2023-12-04T05:10:17;98973.21;;;1.78;100.00
60817;BME280;51921;51.518;-3.188;2023-12-04T05:12:42;98974.47;;;1.54;100.00
60817;BME280;51921;51.518;-3.188;2023-12-04T05:15:08;98979.03;;;0.97;100.00
60817;BME280;51921;51.518;-3.188;2023-12-04T05:17:33;98980.01;;;1.34;100.00
60817;BME280;51921;51.518;-3.188;2023-12-04T05:19:59;98978.28;;;1.07;100.00
60817;BME280;51921;51.518;-3.188;2023-12-04T05:22:25;98978.69;;;1.59;100.00
60817;BME280;51921;51.518;-3.188;2023-12-04T05:24:50;98982.76;;;1.95;100.00
60817;BME280;51921;51.518;-3.188;2023-12-04T05:27:16;98983.48;;;3.62;100.00
60817;BME280;51921;51.518;-3.188;2023-12-04T05:29:41;98978.12;;;2.76;100.00
60817;BME280;51921;51.518;-3.188;2023-12-04T05:32:07;98978.35;;;2.32;100.00
60817;BME280;51921;51.518;-3.188;2023-12-04T05:34:32;98984.90;;;1.98;100.00
60817;BME280;51921;51.518;-3.188;2023-12-04T05:36:58;98984.37;;;1.52;100.00
60817;BME280;51921;51.518;-3.188;2023-12-04T05:39:23;98984.55;;;1.46;100.00
60817;BME280;51921;51.518;-3.188;2023-12-04T05:41:49;98986.41;;;1.41;100.00
60817;BME280;51921;51.518;-3.188;2023-12-04T05:44:15;98981.87;;;0.88;100.00
60817;BME280;51921;51.518;-3.188;2023-12-04T05:46:40;98980.83;;;1.26;100.00
60817;BME280;51921;51.518;-3.188;2023-12-04T05:49:06;98984.01;;;2.22;100.00
60817;BME280;51921;51.518;-3.188;2023-12-04T05:51:31;98980.37;;;2.64;100.00
60817;BME280;51921;51.518;-3.188;2023-12-04T05:53:57;98979.26;;;2.36;100.00
60817;BME280;51921;51.518;-3.188;2023-12-04T05:56:23;98983.40;;;1.98;100.00
60817;BME280;51921;51.518;-3.188;2023-12-04T05:58:48;98983.93;;;2.10;100.00
60817;BME280;51921;51.518;-3.188;2023-12-04T06:01:14;98978.85;;;2.53;100.00
60817;BME280;51921;51.518;-3.188;2023-12-04T06:03:39;98967.33;;;2.80;100.00
60817;BME280;51921;51.518;-3.188;2023-12-04T06:06:05;98966.66;;;3.90;100.00
60817;BME280;51921;51.518;-3.188;2023-12-04T06:08:30;98961.05;;;3.19;100.00
60817;BME280;51921;51.518;-3.188;2023-12-04T06:10:56;98964.61;;;2.69;100.00
60817;BME280;51921;51.518;-3.188;2023-12-04T06:13:22;98968.24;;;2.11;100.00
60817;BME280;51921;51.518;-3.188;2023-12-04T06:15:47;98961.46;;;1.51;100.00
60817;BME280;51921;51.518;-3.188;2023-12-04T06:18:13;98965.12;;;1.51;100.00
60817;BME280;51921;51.518;-3.188;2023-12-04T06:20:38;98965.87;;;3.52;100.00
60817;BME280;51921;51.518;-3.188;2023-12-04T06:23:04;98957.36;;;4.59;100.00
60817;BME280;51921;51.518;-3.188;2023-12-04T06:25:30;98954.94;;;5.49;100.00
60817;BME280;51921;51.518;-3.188;2023-12-04T06:27:55;98954.26;;;5.31;100.00
60817;BME280;51921;51.518;-3.188;2023-12-04T06:30:21;98957.66;;;6.48;100.00
60817;BME280;51921;51.518;-3.188;2023-12-04T06:32:46;98957.89;;;6.65;100.00
60817;BME280;51921;51.518;-3.188;2023-12-04T06:35:13;98958.97;;;6.79;100.00
60817;BME280;51921;51.518;-3.188;2023-12-04T06:37:38;98963.11;;;7.34;100.00
60817;BME280;51921;51.518;-3.188;2023-12-04T06:40:04;98969.94;;;6.89;100.00
60817;BME280;51921;51.518;-3.188;2023-12-04T06:42:28;98965.24;;;5.32;100.00
60817;BME280;51921;51.518;-3.188;2023-12-04T06:44:54;98970.54;;;2.54;100.00
60817;BME280;51921;51.518;-3.188;2023-12-04T06:47:22;98981.19;;;1.91;100.00
60817;BME280;51921;51.518;-3.188;2023-12-04T06:49:45;98979.26;;;2.07;100.00
60817;BME280;51921;51.518;-3.188;2023-12-04T06:52:10;98979.51;;;2.09;100.00
60817;BME280;51921;51.518;-3.188;2023-12-04T06:54:36;98977.14;;;2.25;100.00
60817;BME280;51921;51.518;-3.188;2023-12-04T06:57:01;98974.05;;;2.33;100.00
60817;BME280;51921;51.518;-3.188;2023-12-04T06:59:27;98964.76;;;3.05;100.00
60817;BME280;51921;51.518;-3.188;2023-12-04T07:01:52;98960.32;;;4.23;100.00
60817;BME280;51921;51.518;-3.188;2023-12-04T07:04:18;98960.94;;;5.54;100.00
60817;BME280;51921;51.518;-3.188;2023-12-04T07:06:43;98964.26;;;6.22;100.00
60817;BME280;51921;51.518;-3.188;2023-12-04T07:09:09;98955.91;;;5.71;100.00
60817;BME280;51921;51.518;-3.188;2023-12-04T07:11:34;98956.73;;;3.44;100.00
60817;BME280;51921;51.518;-3.188;2023-12-04T07:14:00;98955.06;;;3.73;100.00
60817;BME280;51921;51.518;-3.188;2023-12-04T07:16:25;98953.85;;;4.75;100.00
60817;BME280;51921;51.518;-3.188;2023-12-04T07:18:51;98958.83;;;3.94;100.00
60817;BME280;51921;51.518;-3.188;2023-12-04T07:21:16;98956.23;;;4.44;100.00
60817;BME280;51921;51.518;-3.188;2023-12-04T07:23:42;98955.70;;;3.53;100.00
60817;BME280;51921;51.518;-3.188;2023-12-04T07:26:07;98964.00;;;2.20;100.00
60817;BME280;51921;51.518;-3.188;2023-12-04T07:28:33;98971.57;;;2.15;100.00
60817;BME280;51921;51.518;-3.188;2023-12-04T07:30:59;98974.70;;;3.69;100.00
60817;BME280;51921;51.518;-3.188;2023-12-04T07:33:24;98968.90;;;5.20;100.00
60817;BME280;51921;51.518;-3.188;2023-12-04T07:35:49;98963.30;;;5.14;100.00
60817;BME280;51921;51.518;-3.188;2023-12-04T07:38:15;98966.04;;;3.97;100.00
60817;BME280;51921;51.518;-3.188;2023-12-04T07:40:41;98967.90;;;5.68;100.00
60817;BME280;51921;51.518;-3.188;2023-12-04T07:43:06;98976.82;;;6.82;100.00
60817;BME280;51921;51.518;-3.188;2023-12-04T07:45:32;98974.07;;;7.40;100.00
60817;BME280;51921;51.518;-3.188;2023-12-04T07:47:57;98972.68;;;7.55;100.00
60817;BME280;51921;51.518;-3.188;2023-12-04T07:50:23;98975.80;;;7.98;100.00
60817;BME280;51921;51.518;-3.188;2023-12-04T07:52:48;98974.75;;;8.04;100.00
60817;BME280;51921;51.518;-3.188;2023-12-04T07:55:14;98974.76;;;7.54;100.00
60817;BME280;51921;51.518;-3.188;2023-12-04T07:57:39;98976.03;;;7.93;100.00
60817;BME280;51921;51.518;-3.188;2023-12-04T08:00:06;98970.46;;;7.96;100.00
60817;BME280;51921;51.518;-3.188;2023-12-04T08:02:30;98972.92;;;8.91;100.00
60817;BME280;51921;51.518;-3.188;2023-12-04T08:04:56;98971.36;;;8.43;100.00
60817;BME280;51921;51.518;-3.188;2023-12-04T08:07:21;98970.83;;;8.58;100.00
60817;BME280;51921;51.518;-3.188;2023-12-04T08:09:47;98974.55;;;3.67;100.00
60817;BME280;51921;51.518;-3.188;2023-12-04T08:12:12;98982.00;;;4.17;100.00
60817;BME280;51921;51.518;-3.188;2023-12-04T08:14:37;98984.47;;;3.69;100.00
60817;BME280;51921;51.518;-3.188;2023-12-04T08:17:03;98985.55;;;3.38;100.00
60817;BME280;51921;51.518;-3.188;2023-12-04T08:19:28;98990.28;;;3.14;100.00
60817;BME280;51921;51.518;-3.188;2023-12-04T08:21:54;98996.75;;;2.42;100.00
60817;BME280;51921;51.518;-3.188;2023-12-04T08:24:19;98995.85;;;1.89;100.00
60817;BME280;51921;51.518;-3.188;2023-12-04T08:26:45;99002.73;;;2.08;100.00
60817;BME280;51921;51.518;-3.188;2023-12-04T08:29:10;99005.90;;;2.23;100.00
60817;BME280;51921;51.518;-3.188;2023-12-04T08:31:36;99008.31;;;2.45;100.00
60817;BME280;51921;51.518;-3.188;2023-12-04T08:34:01;99009.52;;;2.26;100.00
60817;BME280;51921;51.518;-3.188;2023-12-04T08:36:27;99009.90;;;1.82;100.00
60817;BME280;51921;51.518;-3.188;2023-12-04T08:38:52;99010.65;;;2.10;100.00
60817;BME280;51921;51.518;-3.188;2023-12-04T08:41:18;99014.38;;;1.81;100.00
60817;BME280;51921;51.518;-3.188;2023-12-04T08:43:44;99018.90;;;1.92;100.00
60817;BME280;51921;51.518;-3.188;2023-12-04T08:46:12;99022.27;;;2.46;100.00
60817;BME280;51921;51.518;-3.188;2023-12-04T08:48:35;99022.56;;;2.18;100.00
60817;BME280;51921;51.518;-3.188;2023-12-04T08:51:00;99022.97;;;3.18;100.00
60817;BME280;51921;51.518;-3.188;2023-12-04T08:53:26;99026.41;;;3.23;100.00
60817;BME280;51921;51.518;-3.188;2023-12-04T08:55:51;99036.10;;;2.88;100.00
60817;BME280;51921;51.518;-3.188;2023-12-04T08:58:17;99037.99;;;3.35;100.00
60817;BME280;51921;51.518;-3.188;2023-12-04T09:00:42;99038.31;;;2.62;100.00
60817;BME280;51921;51.518;-3.188;2023-12-04T09:03:08;99039.30;;;2.37;100.00
60817;BME280;51921;51.518;-3.188;2023-12-04T09:05:34;99039.78;;;1.52;100.00
60817;BME280;51921;51.518;-3.188;2023-12-04T09:07:59;99047.38;;;1.52;100.00
60817;BME280;51921;51.518;-3.188;2023-12-04T09:10:25;99047.33;;;1.97;100.00
60817;BME280;51921;51.518;-3.188;2023-12-04T09:12:50;99046.62;;;1.96;100.00
60817;BME280;51921;51.518;-3.188;2023-12-04T09:15:16;99048.40;;;1.59;100.00
60817;BME280;51921;51.518;-3.188;2023-12-04T09:17:41;99048.41;;;1.45;100.00
60817;BME280;51921;51.518;-3.188;2023-12-04T09:20:08;99047.75;;;1.24;100.00
60817;BME280;51921;51.518;-3.188;2023-12-04T09:22:33;99051.70;;;1.53;100.00
60817;BME280;51921;51.518;-3.188;2023-12-04T09:24:58;99055.70;;;1.47;100.00
60817;BME280;51921;51.518;-3.188;2023-12-04T09:27:24;99055.02;;;1.62;100.00
60817;BME280;51921;51.518;-3.188;2023-12-04T09:29:49;99054.66;;;1.80;100.00
60817;BME280;51921;51.518;-3.188;2023-12-04T09:32:15;99052.01;;;1.82;100.00
60817;BME280;51921;51.518;-3.188;2023-12-04T09:34:40;99052.84;;;1.72;100.00
60817;BME280;51921;51.518;-3.188;2023-12-04T09:37:06;99055.62;;;1.39;100.00
60817;BME280;51921;51.518;-3.188;2023-12-04T09:39:32;99057.96;;;1.62;100.00
60817;BME280;51921;51.518;-3.188;2023-12-04T09:41:58;99064.63;;;1.53;100.00
60817;BME280;51921;51.518;-3.188;2023-12-04T09:44:24;99065.96;;;1.55;100.00
60817;BME280;51921;51.518;-3.188;2023-12-04T09:46:49;99067.99;;;1.48;100.00
60817;BME280;51921;51.518;-3.188;2023-12-04T09:49:14;99069.46;;;1.67;100.00
60817;BME280;51921;51.518;-3.188;2023-12-04T09:51:40;99070.52;;;1.63;100.00
60817;BME280;51921;51.518;-3.188;2023-12-04T09:54:05;99074.28;;;1.19;100.00
60817;BME280;51921;51.518;-3.188;2023-12-04T09:56:32;99075.14;;;1.42;100.00
60817;BME280;51921;51.518;-3.188;2023-12-04T09:58:59;99074.75;;;1.64;100.00
60817;BME280;51921;51.518;-3.188;2023-12-04T10:01:22;99072.58;;;1.77;100.00
60817;BME280;51921;51.518;-3.188;2023-12-04T10:03:48;99071.33;;;1.72;100.00
60817;BME280;51921;51.518;-3.188;2023-12-04T10:06:15;99070.70;;;1.83;100.00
60817;BME280;51921;51.518;-3.188;2023-12-04T10:08:39;99075.11;;;2.02;100.00
60817;BME280;51921;51.518;-3.188;2023-12-04T10:11:04;99076.84;;;1.91;100.00
60817;BME280;51921;51.518;-3.188;2023-12-04T10:13:30;99079.81;;;2.55;100.00
60817;BME280;51921;51.518;-3.188;2023-12-04T10:15:55;99081.48;;;1.90;100.00
60817;BME280;51921;51.518;-3.188;2023-12-04T10:18:25;99080.46;;;2.29;100.00
60817;BME280;51921;51.518;-3.188;2023-12-04T10:20:52;99080.68;;;2.79;100.00
60817;BME280;51921;51.518;-3.188;2023-12-04T10:23:12;99084.79;;;2.60;100.00
60817;BME280;51921;51.518;-3.188;2023-12-04T10:25:37;99085.41;;;2.69;100.00
60817;BME280;51921;51.518;-3.188;2023-12-04T10:28:08;99089.99;;;2.66;100.00
60817;BME280;51921;51.518;-3.188;2023-12-04T10:30:29;99088.89;;;3.70;100.00
60817;BME280;51921;51.518;-3.188;2023-12-04T10:32:55;99085.24;;;3.70;100.00
60817;BME280;51921;51.518;-3.188;2023-12-04T10:35:20;99082.57;;;4.99;100.00
60817;BME280;51921;51.518;-3.188;2023-12-04T10:37:45;99073.86;;;5.04;100.00
60817;BME280;51921;51.518;-3.188;2023-12-04T10:40:11;99083.93;;;2.67;100.00
60817;BME280;51921;51.518;-3.188;2023-12-04T10:42:36;99085.64;;;3.23;100.00
60817;BME280;51921;51.518;-3.188;2023-12-04T10:45:02;99086.16;;;2.80;100.00
60817;BME280;51921;51.518;-3.188;2023-12-04T10:47:29;99087.53;;;2.78;100.00
60817;BME280;51921;51.518;-3.188;2023-12-04T10:49:53;99082.29;;;3.61;100.00
60817;BME280;51921;51.518;-3.188;2023-12-04T10:52:19;99081.02;;;3.01;100.00
60817;BME280;51921;51.518;-3.188;2023-12-04T10:54:44;99080.45;;;3.10;100.00
60817;BME280;51921;51.518;-3.188;2023-12-04T10:57:10;99082.00;;;2.98;100.00
60817;BME280;51921;51.518;-3.188;2023-12-04T10:59:36;99087.99;;;2.45;100.00
60817;BME280;51921;51.518;-3.188;2023-12-04T11:02:01;99089.48;;;1.94;100.00
60817;BME280;51921;51.518;-3.188;2023-12-04T11:04:27;99093.38;;;2.13;100.00
60817;BME280;51921;51.518;-3.188;2023-12-04T11:06:53;99090.87;;;2.12;100.00
60817;BME280;51921;51.518;-3.188;2023-12-04T11:09:18;99093.86;;;2.31;100.00
60817;BME280;51921;51.518;-3.188;2023-12-04T11:11:46;99094.92;;;3.30;100.00
60817;BME280;51921;51.518;-3.188;2023-12-04T11:14:09;99094.08;;;2.76;100.00
60817;BME280;51921;51.518;-3.188;2023-12-04T11:16:38;99092.59;;;2.57;100.00
60817;BME280;51921;51.518;-3.188;2023-12-04T11:19:03;99088.89;;;4.33;100.00
60817;BME280;51921;51.518;-3.188;2023-12-04T11:21:26;99088.03;;;3.35;100.00
60817;BME280;51921;51.518;-3.188;2023-12-04T11:23:51;99091.49;;;2.47;100.00
60817;BME280;51921;51.518;-3.188;2023-12-04T11:26:17;99091.36;;;2.20;100.00
60817;BME280;51921;51.518;-3.188;2023-12-04T11:28:43;99093.60;;;1.61;100.00
60817;BME280;51921;51.518;-3.188;2023-12-04T11:31:08;99096.98;;;1.95;100.00
60817;BME280;51921;51.518;-3.188;2023-12-04T11:33:35;99092.68;;;2.03;100.00
60817;BME280;51921;51.518;-3.188;2023-12-04T11:36:07;99092.16;;;2.29;100.00
60817;BME280;51921;51.518;-3.188;2023-12-04T11:38:24;99093.65;;;2.75;100.00
60817;BME280;51921;51.518;-3.188;2023-12-04T11:40:52;99093.29;;;3.09;100.00
60817;BME280;51921;51.518;-3.188;2023-12-04T11:43:23;99094.43;;;2.71;100.00
60817;BME280;51921;51.518;-3.188;2023-12-04T11:45:41;99093.52;;;3.52;100.00
60817;BME280;51921;51.518;-3.188;2023-12-04T11:48:08;99092.95;;;2.89;100.00
60817;BME280;51921;51.518;-3.188;2023-12-04T11:50:33;99092.27;;;2.66;100.00
60817;BME280;51921;51.518;-3.188;2023-12-04T11:52:57;99091.91;;;3.37;100.00
60817;BME280;51921;51.518;-3.188;2023-12-04T11:55:26;99089.17;;;2.61;100.00
60817;BME280;51921;51.518;-3.188;2023-12-04T11:57:50;99087.87;;;2.49;100.00
60817;BME280;51921;51.518;-3.188;2023-12-04T12:00:21;99088.75;;;1.46;100.00
60817;BME280;51921;51.518;-3.188;2023-12-04T12:02:41;99090.80;;;1.63;100.00
60817;BME280;51921;51.518;-3.188;2023-12-04T12:05:06;99099.72;;;1.66;100.00
60817;BME280;51921;51.518;-3.188;2023-12-04T12:07:31;99103.66;;;1.66;100.00
60817;BME280;51921;51.518;-3.188;2023-12-04T12:09:56;99103.15;;;1.25;100.00
60817;BME280;51921;51.518;-3.188;2023-12-04T12:12:23;99104.43;;;2.28;100.00
60817;BME280;51921;51.518;-3.188;2023-12-04T12:14:47;99102.38;;;2.31;100.00
60817;BME280;51921;51.518;-3.188;2023-12-04T12:17:13;99102.44;;;2.39;100.00
60817;BME280;51921;51.518;-3.188;2023-12-04T12:19:39;99102.86;;;2.13;100.00
60817;BME280;51921;51.518;-3.188;2023-12-04T12:22:04;99108.27;;;3.27;100.00
60817;BME280;51921;51.518;-3.188;2023-12-04T12:24:30;99111.70;;;1.51;100.00
60817;BME280;51921;51.518;-3.188;2023-12-04T12:26:55;99113.40;;;3.46;100.00
60817;BME280;51921;51.518;-3.188;2023-12-04T12:29:21;99113.17;;;0.77;100.00
60817;BME280;51921;51.518;-3.188;2023-12-04T12:31:47;99116.37;;;1.93;100.00
60817;BME280;51921;51.518;-3.188;2023-12-04T12:34:12;99117.13;;;2.15;100.00
60817;BME280;51921;51.518;-3.188;2023-12-04T12:36:38;99121.80;;;1.57;100.00
60817;BME280;51921;51.518;-3.188;2023-12-04T12:39:03;99117.07;;;2.06;100.00
60817;BME280;51921;51.518;-3.188;2023-12-04T12:41:29;99114.03;;;2.29;100.00